Terminal Aerodrome Forecast
Issued by NWS Cleveland, OH

Home | Current Version | Previous Version | Text Only | Print | Product List | Glossary On
Versions: 1 2 3 4 5 6 7 8 9 10 11 12
000
FTUS41 KCLE 300538
TAFCAK
TAF
KCAK 300538Z 3006/3106 25005KT P6SM SCT030 BKN080
      TEMPO 3006/3008 5SM BR BKN030
     FM300800 29007KT P6SM SCT080 BKN250
     FM301500 27012G20KT P6SM SKC
     FM310000 25006KT P6SM SKC=

USA.gov is the U.S. government's official web portal to all federal, state and local government web resources and services.